createdAt,value
2017-08-21T00:01:24.131Z,93.70
2017-08-21T00:03:51.639Z,93.90
2017-08-21T00:06:19.134Z,94.50
2017-08-21T00:08:46.642Z,94.50
2017-08-21T00:11:14.128Z,94.80
2017-08-21T00:13:41.654Z,94.70
2017-08-21T00:16:09.144Z,94.50
2017-08-21T00:18:36.655Z,94.60
2017-08-21T00:21:04.138Z,94.60
2017-08-21T00:23:33.598Z,94.30
2017-08-21T00:26:01.102Z,93.50
2017-08-21T00:28:28.606Z,93.40
2017-08-21T00:30:56.088Z,94.10
2017-08-21T00:33:24.554Z,93.20
2017-08-21T00:35:52.039Z,93.90
2017-08-21T00:38:19.550Z,93.70
2017-08-21T00:40:47.040Z,94.10
2017-08-21T00:43:14.542Z,94.70
2017-08-21T00:45:42.030Z,94.60
2017-08-21T00:48:09.535Z,94.50
2017-08-21T00:50:37.024Z,94.20
2017-08-21T00:53:04.528Z,94.00
2017-08-21T00:55:32.030Z,94.60
2017-08-21T00:57:59.530Z,94.40
2017-08-21T01:00:27.015Z,94.60
2017-08-21T01:02:56.450Z,94.30
2017-08-21T01:05:23.942Z,94.00
2017-08-21T01:07:51.447Z,94.10
2017-08-21T01:10:18.930Z,94.30
2017-08-21T01:12:46.421Z,94.60
2017-08-21T01:15:13.906Z,94.70
2017-08-21T01:17:41.412Z,94.60
2017-08-21T01:20:08.899Z,94.90
2017-08-21T01:22:36.401Z,95.20
2017-08-21T01:25:03.892Z,95.50
2017-08-21T01:27:31.390Z,95.40
2017-08-21T01:29:58.882Z,95.40
2017-08-21T01:32:26.386Z,95.10
2017-08-21T01:34:53.872Z,94.90
2017-08-21T01:37:21.375Z,95.10
2017-08-21T01:39:48.850Z,94.80
2017-08-21T01:42:17.249Z,94.50
2017-08-21T01:44:44.746Z,94.40
2017-08-21T01:47:12.250Z,94.10
2017-08-21T01:49:39.742Z,94.70
2017-08-21T01:52:07.250Z,95.00
2017-08-21T01:54:34.742Z,95.10
2017-08-21T01:57:02.254Z,95.00
2017-08-21T01:59:29.763Z,95.20
2017-08-21T02:01:57.256Z,95.00
2017-08-21T02:04:26.726Z,95.20
2017-08-21T02:06:54.224Z,95.30
2017-08-21T02:09:21.726Z,95.30
2017-08-21T02:11:49.211Z,95.40
2017-08-21T02:14:16.713Z,94.90
2017-08-21T02:16:44.195Z,95.00
2017-08-21T02:19:11.721Z,94.80
2017-08-21T02:21:40.169Z,94.70
2017-08-21T02:24:07.673Z,94.70
2017-08-21T02:26:35.170Z,94.50
2017-08-21T02:29:02.670Z,94.50
2017-08-21T02:31:30.158Z,94.50
2017-08-21T02:33:57.662Z,94.20
2017-08-21T02:36:25.146Z,94.00
2017-08-21T02:38:52.658Z,94.40
2017-08-21T02:41:20.138Z,94.40
2017-08-21T02:43:47.655Z,94.80
2017-08-21T02:46:15.147Z,95.40
2017-08-21T02:48:42.642Z,95.60
2017-08-21T02:51:10.135Z,95.70
2017-08-21T02:53:37.634Z,94.80
2017-08-21T02:56:05.122Z,95.20
2017-08-21T02:58:32.630Z,94.90
2017-08-21T03:01:00.126Z,95.10
2017-08-21T03:03:28.563Z,95.10
2017-08-21T03:05:56.050Z,95.10
2017-08-21T03:08:23.577Z,94.90
2017-08-21T03:10:51.063Z,95.20
2017-08-21T03:13:18.562Z,95.40
2017-08-21T03:15:46.051Z,95.40
2017-08-21T03:18:13.571Z,95.00
2017-08-21T03:20:41.059Z,95.00
2017-08-21T03:23:08.552Z,95.10
2017-08-21T03:25:36.053Z,95.20
2017-08-21T03:28:05.511Z,95.50
2017-08-21T03:30:33.006Z,95.60
2017-08-21T03:33:00.523Z,95.70
2017-08-21T03:35:28.006Z,95.60
2017-08-21T03:37:55.528Z,95.80
2017-08-21T03:40:23.018Z,96.10
2017-08-21T03:42:50.519Z,96.10
2017-08-21T03:45:18.019Z,95.80
2017-08-21T03:47:45.528Z,95.60
2017-08-21T03:50:13.016Z,95.90
2017-08-21T03:52:40.531Z,96.10
2017-08-21T03:55:10.026Z,96.30
2017-08-21T03:57:37.523Z,96.70
2017-08-21T04:00:05.034Z,96.80
2017-08-21T04:02:32.514Z,96.90
2017-08-21T04:05:00.038Z,97.10
2017-08-21T04:07:27.539Z,97.10
2017-08-21T04:09:55.063Z,97.20
2017-08-21T04:12:22.550Z,97.10
2017-08-21T04:14:50.067Z,96.90
2017-08-21T04:17:17.550Z,96.90
2017-08-21T04:19:45.052Z,96.50
2017-08-21T04:22:14.498Z,96.50
2017-08-21T04:24:41.995Z,96.70
2017-08-21T04:27:09.514Z,96.90
2017-08-21T04:29:37.001Z,96.90
2017-08-21T04:32:04.515Z,96.80
2017-08-21T04:34:32.022Z,96.80
2017-08-21T04:36:59.523Z,97.00
2017-08-21T04:39:27.003Z,97.00
2017-08-21T04:41:54.516Z,97.00
2017-08-21T04:44:21.991Z,96.80
2017-08-21T04:46:49.943Z,96.70
2017-08-21T04:49:18.382Z,96.90
2017-08-21T04:51:45.887Z,96.90
2017-08-21T04:54:13.384Z,97.00
2017-08-21T04:56:40.886Z,97.10
2017-08-21T04:59:08.364Z,97.20
2017-08-21T05:01:35.858Z,97.20
2017-08-21T05:04:03.379Z,97.30
2017-08-21T05:06:31.192Z,97.20
2017-08-21T05:08:58.714Z,97.30
2017-08-21T05:11:26.201Z,97.20
2017-08-21T05:13:53.707Z,97.10
2017-08-21T05:16:21.189Z,97.10
2017-08-21T05:18:48.680Z,96.80
2017-08-21T05:21:16.182Z,96.40
2017-08-21T05:23:44.602Z,96.50
2017-08-21T05:26:12.125Z,96.70
2017-08-21T05:28:39.606Z,96.50
2017-08-21T05:31:07.127Z,96.80
2017-08-21T05:33:34.608Z,96.90
2017-08-21T05:36:02.110Z,97.20
2017-08-21T05:38:29.610Z,97.30
2017-08-21T05:40:57.102Z,97.20
2017-08-21T05:43:24.627Z,97.30
2017-08-21T05:45:52.134Z,96.80
2017-08-21T05:48:21.566Z,96.30
2017-08-21T05:50:49.053Z,96.40
2017-08-21T05:53:16.549Z,96.50
2017-08-21T05:55:46.015Z,96.50
2017-08-21T05:58:13.506Z,96.30
2017-08-21T06:00:41.019Z,96.20
2017-08-21T06:03:08.515Z,96.00
2017-08-21T06:05:37.967Z,95.50
2017-08-21T06:08:05.454Z,94.80
2017-08-21T06:10:32.948Z,94.70
2017-08-21T06:13:00.458Z,94.50
2017-08-21T06:15:27.942Z,94.20
2017-08-21T06:17:55.447Z,93.40
2017-08-21T06:20:22.940Z,92.70
2017-08-21T06:22:52.407Z,92.60
2017-08-21T06:25:19.915Z,92.60
2017-08-21T06:27:47.425Z,92.30
2017-08-21T06:30:14.919Z,91.70
2017-08-21T06:32:42.446Z,92.20
2017-08-21T06:35:09.993Z,91.80
2017-08-21T06:37:37.490Z,92.10
2017-08-21T06:40:04.979Z,91.40
2017-08-21T06:42:34.431Z,91.20
2017-08-21T06:45:01.944Z,90.90
2017-08-21T06:47:29.451Z,90.70
2017-08-21T06:49:56.978Z,90.90
2017-08-21T06:52:24.486Z,90.90
2017-08-21T06:54:51.975Z,90.80
2017-08-21T06:57:20.403Z,91.00
2017-08-21T06:59:47.911Z,90.30
2017-08-21T07:02:15.407Z,90.00
2017-08-21T07:04:42.910Z,89.80
2017-08-21T07:07:10.409Z,89.90
2017-08-21T07:09:37.890Z,89.70
2017-08-21T07:12:05.384Z,89.80
2017-08-21T07:14:32.886Z,89.90
2017-08-21T07:17:00.386Z,88.90
2017-08-21T07:19:27.863Z,88.60
2017-08-21T07:21:55.387Z,88.80
2017-08-21T07:24:22.871Z,89.10
2017-08-21T07:26:50.372Z,88.00
2017-08-21T07:29:17.903Z,88.50
2017-08-21T07:31:45.389Z,87.60
2017-08-21T07:34:12.917Z,87.20
2017-08-21T07:36:40.403Z,86.80
2017-08-21T07:39:08.866Z,86.50
2017-08-21T07:41:36.377Z,86.40
2017-08-21T07:44:03.894Z,86.70
2017-08-21T07:46:31.407Z,87.00
2017-08-21T07:48:58.903Z,86.10
2017-08-21T07:51:26.414Z,86.60
2017-08-21T07:53:53.925Z,86.50
2017-08-21T07:56:21.426Z,86.30
2017-08-21T07:58:48.935Z,85.60
2017-08-21T08:01:16.461Z,86.40
2017-08-21T08:03:43.960Z,85.50
2017-08-21T08:06:11.462Z,85.40
2017-08-21T08:08:38.945Z,85.60
2017-08-21T08:11:06.459Z,84.50
2017-08-21T08:13:33.943Z,85.00
2017-08-21T08:16:01.439Z,84.50
2017-08-21T08:18:28.926Z,84.60
2017-08-21T08:20:56.444Z,84.00
2017-08-21T08:23:23.927Z,84.20
2017-08-21T08:25:51.463Z,84.20
2017-08-21T08:28:18.939Z,84.30
2017-08-21T08:30:46.458Z,82.90
2017-08-21T08:33:13.975Z,83.50
2017-08-21T08:35:41.463Z,83.80
2017-08-21T08:38:08.959Z,84.30
2017-08-21T08:40:37.385Z,83.40
2017-08-21T08:43:04.902Z,83.40
2017-08-21T08:45:32.398Z,82.30
2017-08-21T08:47:59.938Z,81.60
2017-08-21T08:50:27.435Z,81.20
2017-08-21T08:52:54.944Z,81.50
2017-08-21T08:55:22.418Z,80.20
2017-08-21T08:57:49.935Z,79.20
2017-08-21T09:00:17.418Z,80.10
2017-08-21T09:02:46.893Z,79.70
2017-08-21T09:05:14.387Z,79.50
2017-08-21T09:07:41.869Z,80.00
2017-08-21T09:10:09.395Z,78.80
2017-08-21T09:12:36.877Z,78.70
2017-08-21T09:15:04.366Z,78.10
2017-08-21T09:17:31.867Z,77.70
2017-08-21T09:19:59.349Z,78.40
2017-08-21T09:22:26.856Z,79.10
2017-08-21T09:24:54.351Z,78.20
2017-08-21T09:27:21.850Z,78.50
2017-08-21T09:29:49.332Z,77.00
2017-08-21T09:32:16.859Z,77.80
2017-08-21T09:34:44.346Z,78.50
2017-08-21T09:37:13.794Z,79.50
2017-08-21T09:39:41.284Z,78.30
2017-08-21T09:42:08.793Z,77.80
2017-08-21T09:44:36.282Z,76.50
2017-08-21T09:47:03.785Z,76.70
2017-08-21T09:49:31.274Z,77.30
2017-08-21T09:51:58.774Z,76.70
2017-08-21T09:54:27.208Z,76.10
2017-08-21T09:56:55.922Z,75.90
2017-08-21T09:59:23.403Z,74.60
2017-08-21T10:01:50.914Z,74.90
2017-08-21T10:04:18.396Z,74.70
2017-08-21T10:06:45.900Z,75.10
2017-08-21T10:09:13.377Z,75.20
2017-08-21T10:11:40.909Z,76.40
2017-08-21T10:14:08.395Z,76.00
2017-08-21T10:16:35.907Z,72.90
2017-08-21T10:19:03.391Z,71.60
2017-08-21T10:21:30.911Z,73.30
2017-08-21T10:23:58.404Z,74.20
2017-08-21T10:26:25.912Z,73.40
2017-08-21T10:28:54.333Z,72.20
2017-08-21T10:31:22.426Z,72.50
2017-08-21T10:33:49.934Z,71.60
2017-08-21T10:36:45.878Z,72.60
2017-08-21T10:39:13.361Z,72.90
2017-08-21T10:41:40.862Z,72.90
2017-08-21T10:44:08.338Z,73.50
2017-08-21T10:46:35.846Z,74.30
2017-08-21T10:49:03.328Z,75.20
2017-08-21T10:51:30.825Z,74.70
2017-08-21T10:53:58.318Z,76.20
2017-08-21T10:56:25.818Z,75.30
2017-08-21T10:58:55.791Z,72.80
2017-08-21T11:01:23.306Z,72.70
2017-08-21T11:03:50.784Z,72.00
2017-08-21T11:06:18.279Z,72.50
2017-08-21T11:08:45.754Z,72.10
2017-08-21T11:11:13.267Z,72.10
2017-08-21T11:13:40.739Z,73.50
2017-08-21T11:16:08.246Z,72.30
2017-08-21T11:18:35.722Z,73.50
2017-08-21T11:21:03.219Z,73.00
2017-08-21T11:23:30.703Z,72.80
2017-08-21T11:25:58.239Z,73.40
2017-08-21T11:28:25.725Z,72.90
2017-08-21T11:30:53.251Z,72.40
2017-08-21T11:33:20.748Z,71.60
2017-08-21T11:35:48.277Z,70.90
2017-08-21T11:38:15.758Z,71.40
2017-08-21T11:40:43.286Z,71.30
2017-08-21T11:43:11.711Z,71.10
2017-08-21T11:45:39.211Z,71.70
2017-08-21T11:48:06.715Z,71.50
2017-08-21T11:50:36.141Z,72.10
2017-08-21T11:53:03.623Z,72.00
2017-08-21T11:55:31.123Z,71.30
2017-08-21T11:57:58.611Z,70.90
2017-08-21T12:00:26.115Z,71.10
2017-08-21T12:02:53.595Z,71.70
2017-08-21T12:05:21.078Z,71.70
2017-08-21T12:07:50.545Z,71.50
2017-08-21T12:10:18.059Z,71.30
2017-08-21T12:12:45.566Z,71.40
2017-08-21T12:15:13.061Z,71.30
2017-08-21T12:17:40.550Z,72.50
2017-08-21T12:20:08.066Z,72.80
2017-08-21T12:22:36.477Z,71.40
2017-08-21T12:25:03.979Z,71.90
2017-08-21T12:27:31.462Z,71.20
2017-08-21T12:29:58.994Z,70.50
2017-08-21T12:32:26.482Z,70.50
2017-08-21T12:34:53.990Z,70.90
2017-08-21T12:37:21.474Z,70.50
2017-08-21T12:39:49.000Z,70.50
2017-08-21T12:42:16.491Z,71.60
2017-08-21T12:44:45.254Z,70.50
2017-08-21T12:47:12.729Z,70.60
2017-08-21T12:49:40.234Z,71.20
2017-08-21T12:52:07.714Z,71.40
2017-08-21T12:54:35.218Z,71.90
2017-08-21T12:57:02.716Z,71.20
2017-08-21T12:59:30.219Z,71.30
2017-08-21T13:01:57.748Z,70.50
2017-08-21T13:04:25.235Z,69.70
2017-08-21T13:06:52.746Z,68.90
2017-08-21T13:09:20.242Z,69.50
2017-08-21T13:11:47.750Z,69.30
2017-08-21T13:14:15.248Z,70.90
2017-08-21T13:16:43.659Z,69.00
2017-08-21T13:19:11.495Z,69.20
2017-08-21T13:21:39.952Z,68.40
2017-08-21T13:24:08.402Z,68.00
2017-08-21T13:26:35.891Z,67.90
2017-08-21T13:29:03.415Z,68.10
2017-08-21T13:31:31.846Z,67.70
2017-08-21T13:33:59.366Z,68.50
2017-08-21T13:36:26.877Z,67.30
2017-08-21T13:38:54.382Z,67.20
2017-08-21T13:41:21.863Z,68.30
2017-08-21T13:43:49.378Z,68.00
2017-08-21T13:46:16.888Z,67.60
2017-08-21T13:48:44.419Z,66.90
2017-08-21T13:51:11.991Z,67.20
2017-08-21T13:53:39.515Z,67.00
2017-08-21T13:56:07.007Z,67.10
2017-08-21T13:58:34.486Z,67.80
2017-08-21T14:01:02.011Z,68.00
2017-08-21T14:03:29.506Z,67.80
2017-08-21T14:05:57.020Z,68.00
2017-08-21T14:08:24.510Z,68.30
2017-08-21T14:10:52.014Z,67.00
2017-08-21T14:13:20.443Z,68.60
2017-08-21T14:15:47.918Z,67.60
2017-08-21T14:18:15.426Z,67.60
2017-08-21T14:20:44.882Z,68.20
2017-08-21T14:23:12.376Z,67.30
2017-08-21T14:25:39.895Z,69.00
2017-08-21T14:28:07.375Z,67.20
2017-08-21T14:30:34.891Z,66.60
2017-08-21T14:33:02.390Z,67.10
2017-08-21T14:35:31.893Z,67.50
2017-08-21T14:37:59.379Z,67.20
2017-08-21T14:40:27.823Z,67.10
2017-08-21T14:42:55.318Z,68.00
2017-08-21T14:45:22.810Z,66.20
2017-08-21T14:47:50.326Z,66.30
2017-08-21T14:50:17.812Z,67.20
2017-08-21T14:52:45.346Z,67.10
2017-08-21T14:55:12.846Z,66.80
2017-08-21T14:57:40.347Z,66.50
2017-08-21T15:00:07.838Z,68.30
2017-08-21T15:02:35.337Z,67.00
2017-08-21T15:05:02.843Z,66.40
2017-08-21T15:07:30.339Z,66.00
2017-08-21T15:09:57.846Z,65.30
2017-08-21T15:12:26.388Z,65.50
2017-08-21T15:14:53.998Z,65.30
2017-08-21T15:17:21.483Z,65.20
2017-08-21T15:19:49.008Z,65.20
2017-08-21T15:22:16.504Z,66.40
2017-08-21T15:24:44.011Z,65.60
2017-08-21T15:27:11.514Z,65.30
2017-08-21T15:29:39.034Z,65.50
2017-08-21T15:32:06.519Z,65.30
2017-08-21T15:34:34.404Z,66.10
2017-08-21T15:37:01.883Z,66.10
2017-08-21T15:39:29.394Z,65.90
2017-08-21T15:41:56.875Z,65.80
2017-08-21T15:44:24.363Z,65.30
2017-08-21T15:46:51.871Z,65.20
2017-08-21T15:49:19.353Z,66.10
2017-08-21T15:51:46.869Z,65.80
2017-08-21T15:54:14.371Z,66.10
2017-08-21T15:56:42.006Z,65.60
2017-08-21T15:59:09.612Z,66.10
2017-08-21T16:01:38.064Z,66.30
2017-08-21T16:04:05.566Z,66.60
2017-08-21T16:06:33.058Z,67.20
2017-08-21T16:09:00.566Z,67.20
2017-08-21T16:11:28.112Z,66.50
2017-08-21T16:13:55.607Z,66.00
2017-08-21T16:16:23.105Z,65.50
2017-08-21T16:18:50.608Z,65.90
2017-08-21T16:21:18.124Z,65.30
2017-08-21T16:23:45.748Z,65.60
2017-08-21T16:26:13.255Z,65.50
2017-08-21T16:28:40.763Z,65.50
2017-08-21T16:31:08.252Z,65.40
2017-08-21T16:33:35.835Z,66.30
2017-08-21T16:36:03.323Z,66.50
2017-08-21T16:38:31.747Z,66.80
2017-08-21T16:40:59.234Z,65.80
2017-08-21T16:43:28.703Z,66.60
2017-08-21T16:45:56.223Z,65.90
2017-08-21T16:48:23.736Z,66.30
2017-08-21T16:50:51.215Z,66.40
2017-08-21T16:53:18.907Z,66.10
2017-08-21T16:55:46.489Z,66.10
2017-08-21T16:58:14.003Z,66.60
2017-08-21T17:00:41.503Z,65.90
2017-08-21T17:03:09.011Z,66.60
2017-08-21T17:05:36.624Z,66.60
2017-08-21T17:08:06.077Z,66.30
2017-08-21T17:10:33.768Z,67.10
2017-08-21T17:13:01.308Z,67.40
2017-08-21T17:15:28.815Z,66.80
2017-08-21T17:17:56.347Z,66.60
2017-08-21T17:20:23.835Z,67.50
2017-08-21T17:22:51.321Z,67.80
2017-08-21T17:25:18.822Z,67.60
2017-08-21T17:27:46.343Z,68.10
2017-08-21T17:30:13.855Z,68.90
2017-08-21T17:32:41.383Z,69.80
2017-08-21T17:35:08.895Z,69.20
2017-08-21T17:37:36.528Z,70.40
2017-08-21T17:40:04.079Z,70.60
2017-08-21T17:42:31.566Z,70.50
2017-08-21T17:45:01.042Z,71.10
2017-08-21T17:47:28.575Z,72.30
2017-08-21T17:49:56.102Z,70.10
2017-08-21T17:52:23.620Z,69.60
2017-08-21T17:54:51.154Z,69.10
2017-08-21T17:57:18.902Z,69.30
2017-08-21T17:59:46.474Z,69.10
2017-08-21T18:02:14.012Z,68.80
2017-08-21T18:04:41.495Z,68.80
2017-08-21T18:07:08.982Z,69.00
2017-08-21T18:09:36.484Z,69.00
2017-08-21T18:12:06.188Z,69.20
2017-08-21T18:14:38.663Z,69.30
2017-08-21T18:17:06.254Z,69.30
2017-08-21T18:19:33.976Z,69.20
2017-08-21T18:22:01.579Z,69.30
2017-08-21T18:24:29.195Z,69.70
2017-08-21T18:26:56.790Z,69.70
2017-08-21T18:29:24.423Z,70.20
2017-08-21T18:31:52.101Z,69.80
2017-08-21T18:34:20.704Z,69.80
2017-08-21T18:36:49.655Z,69.90
2017-08-21T18:39:17.318Z,70.20
2017-08-21T18:41:44.860Z,70.40
2017-08-21T18:44:12.424Z,70.60
2017-08-21T18:46:39.958Z,70.60
2017-08-21T18:49:07.560Z,71.00
2017-08-21T18:51:36.092Z,71.10
2017-08-21T18:54:04.579Z,72.10
2017-08-21T18:56:32.177Z,75.20
2017-08-21T18:58:59.729Z,76.10
2017-08-21T19:01:27.312Z,77.20
2017-08-21T19:03:54.928Z,77.60
2017-08-21T19:06:22.493Z,78.40
2017-08-21T19:08:50.064Z,78.90
2017-08-21T19:11:17.622Z,79.30
2017-08-21T19:13:45.189Z,79.70
2017-08-21T19:16:12.734Z,80.90
2017-08-21T19:18:40.277Z,81.30
2017-08-21T19:21:08.758Z,82.00
2017-08-21T19:23:36.286Z,82.00
2017-08-21T19:26:03.833Z,82.60
2017-08-21T19:28:31.384Z,82.50
2017-08-21T19:30:58.970Z,82.90
2017-08-21T19:33:26.603Z,83.10
2017-08-21T19:35:54.132Z,83.80
2017-08-21T19:38:21.672Z,84.20
2017-08-21T19:40:49.184Z,84.20
2017-08-21T19:43:16.716Z,84.50
2017-08-21T19:45:44.366Z,84.80
2017-08-21T19:48:13.626Z,85.20
2017-08-21T19:50:44.159Z,84.90
2017-08-21T19:53:11.954Z,85.20
2017-08-21T19:55:40.504Z,85.70
2017-08-21T19:58:08.091Z,86.30
2017-08-21T20:00:37.026Z,86.50
2017-08-21T20:03:04.559Z,86.60
2017-08-21T20:05:32.176Z,87.00
2017-08-21T20:07:59.707Z,86.90
2017-08-21T20:10:27.289Z,87.10
2017-08-21T20:12:54.920Z,87.30
2017-08-21T20:15:22.496Z,87.80
2017-08-21T20:17:50.082Z,87.60
2017-08-21T20:20:17.662Z,87.90
2017-08-21T20:22:45.340Z,87.90
2017-08-21T20:25:12.999Z,88.10
2017-08-21T20:27:40.593Z,88.60
2017-08-21T20:30:08.239Z,89.10
2017-08-21T20:32:35.785Z,89.10
2017-08-21T20:35:03.447Z,88.80
2017-08-21T20:37:31.095Z,88.80
2017-08-21T20:39:58.709Z,89.00
2017-08-21T20:42:26.267Z,88.80
2017-08-21T20:44:53.802Z,88.70
2017-08-21T20:47:21.389Z,88.70
2017-08-21T20:49:50.216Z,89.20
2017-08-21T20:52:22.612Z,89.80
2017-08-21T20:54:51.111Z,90.00
2017-08-21T20:57:18.843Z,90.00
2017-08-21T20:59:46.511Z,89.70
2017-08-21T21:02:14.060Z,90.00
2017-08-21T21:04:42.922Z,90.30
2017-08-21T21:07:10.517Z,90.30
2017-08-21T21:09:38.145Z,90.50
2017-08-21T21:12:05.690Z,90.80
2017-08-21T21:14:34.210Z,90.80
2017-08-21T21:17:01.773Z,91.20
2017-08-21T21:19:29.409Z,91.00
2017-08-21T21:21:56.989Z,91.30
2017-08-21T21:24:24.545Z,91.20
2017-08-21T21:26:52.116Z,90.80
2017-08-21T21:29:19.663Z,90.40
2017-08-21T21:31:47.315Z,91.20
2017-08-21T21:34:14.943Z,91.60
2017-08-21T21:36:42.534Z,91.90
2017-08-21T21:39:10.122Z,91.70
2017-08-21T21:41:37.685Z,91.90
2017-08-21T21:44:05.284Z,91.70
2017-08-21T21:46:32.838Z,91.80
2017-08-21T21:49:00.389Z,91.50
2017-08-21T21:51:27.890Z,91.00
2017-08-21T21:53:55.494Z,91.40
2017-08-21T21:56:23.023Z,90.60
2017-08-21T21:58:50.636Z,91.60
2017-08-21T22:01:19.106Z,92.00
2017-08-21T22:03:47.630Z,92.30
2017-08-21T22:06:15.297Z,92.70
2017-08-21T22:08:42.843Z,92.90
2017-08-21T22:11:10.449Z,91.80
2017-08-21T22:13:38.009Z,92.30
2017-08-21T22:16:05.597Z,92.80
2017-08-21T22:18:33.147Z,92.70
2017-08-21T22:21:00.790Z,92.80
2017-08-21T22:23:29.399Z,92.90
2017-08-21T22:26:01.025Z,92.70
2017-08-21T22:28:28.615Z,92.30
2017-08-21T22:30:56.215Z,91.80
2017-08-21T22:33:24.461Z,91.50
2017-08-21T22:35:52.661Z,92.40
2017-08-21T22:38:20.471Z,92.40
2017-08-21T22:40:50.218Z,92.70
2017-08-21T22:43:17.810Z,93.20
2017-08-21T22:45:45.353Z,93.10
2017-08-21T22:48:12.887Z,92.80
2017-08-21T22:50:40.432Z,92.40
2017-08-21T22:53:07.967Z,92.40
2017-08-21T22:55:35.455Z,92.40
2017-08-21T22:58:02.963Z,92.40
2017-08-21T23:00:31.391Z,92.50
2017-08-21T23:02:59.770Z,92.60
2017-08-21T23:05:27.273Z,92.10
2017-08-21T23:07:54.764Z,92.50
2017-08-21T23:10:22.258Z,92.20
2017-08-21T23:12:49.742Z,92.40
2017-08-21T23:15:17.290Z,92.10
2017-08-21T23:17:44.766Z,89.10
2017-08-21T23:20:12.246Z,87.70
2017-08-21T23:22:41.711Z,87.50
2017-08-21T23:25:09.215Z,87.10
2017-08-21T23:27:36.702Z,86.80
2017-08-21T23:30:04.219Z,86.60
2017-08-21T23:32:31.714Z,86.70
2017-08-21T23:34:59.215Z,86.80
2017-08-21T23:37:26.698Z,88.10
2017-08-21T23:39:54.194Z,88.60
2017-08-21T23:42:21.701Z,88.40
2017-08-21T23:44:49.208Z,88.30
2017-08-21T23:47:16.717Z,88.30
2017-08-21T23:49:44.219Z,88.90
2017-08-21T23:52:11.728Z,88.00
2017-08-21T23:54:40.173Z,87.50
2017-08-21T23:57:07.679Z,86.50
2017-08-21T23:59:35.166Z,86.00
